createdAt,value
2022-11-29T00:00:07.087Z,100370.59375
2022-11-29T00:01:07.552Z,100368.59375
2022-11-29T00:02:07.516Z,100369.14453125
2022-11-29T00:03:10.177Z,100372.8984375
2022-11-29T00:04:07.155Z,100371.546875
2022-11-29T00:05:07.088Z,100371.77734375
2022-11-29T00:06:07.085Z,100371.01171875
2022-11-29T00:07:07.568Z,100368.6171875
2022-11-29T00:08:07.228Z,100374.95703125
2022-11-29T00:09:07.091Z,100372.9296875
2022-11-29T00:10:07.045Z,100371.4609375
2022-11-29T00:11:07.090Z,100375.59765625
2022-11-29T00:12:07.506Z,100370.64453125
2022-11-29T00:13:07.158Z,100370.546875
2022-11-29T00:14:10.097Z,100371.796875
2022-11-29T00:15:07.147Z,100373.15234375
2022-11-29T00:16:07.514Z,100372.60546875
2022-11-29T00:17:07.441Z,100372.45703125
2022-11-29T00:18:07.195Z,100367.875
2022-11-29T00:19:07.175Z,100367.37890625
2022-11-29T00:20:07.228Z,100366.41015625
2022-11-29T00:21:07.172Z,100365.92578125
2022-11-29T00:22:07.511Z,100362.734375
2022-11-29T00:23:07.175Z,100364.21484375
2022-11-29T00:24:07.097Z,100365.29296875
2022-11-29T00:25:10.073Z,100363.171875
2022-11-29T00:26:07.164Z,100363.4453125
2022-11-29T00:27:07.511Z,100357.32421875
2022-11-29T00:28:07.286Z,100360.6953125
2022-11-29T00:29:07.062Z,100359.984375
2022-11-29T00:30:59.813Z,100365.83984375
2022-11-29T00:31:07.472Z,100365.3515625
2022-11-29T00:32:07.517Z,100366.1171875
2022-11-29T00:33:07.166Z,100363.7890625
2022-11-29T00:34:07.078Z,100365.78125
2022-11-29T00:35:09.854Z,100369.52734375
2022-11-29T00:36:10.086Z,100369.79296875
2022-11-29T00:37:07.442Z,100369.3125
2022-11-29T00:38:07.575Z,100367.88671875
2022-11-29T00:39:07.166Z,100369.7265625
2022-11-29T00:40:07.103Z,100370.92578125
2022-11-29T00:41:07.217Z,100371.078125
2022-11-29T00:42:07.444Z,100368.4296875
2022-11-29T00:43:07.259Z,100370.4765625
2022-11-29T00:44:07.192Z,100371
2022-11-29T00:45:07.203Z,100374.21875
2022-11-29T00:46:07.494Z,100372.3046875
2022-11-29T00:47:13.194Z,100371.22265625
2022-11-29T00:48:07.187Z,100375.71484375
2022-11-29T00:49:07.133Z,100371.01171875
2022-11-29T00:50:07.079Z,100373.51171875
2022-11-29T00:51:07.062Z,100369.44140625
2022-11-29T00:52:07.519Z,100368.0625
2022-11-29T00:53:07.170Z,100371.40625
2022-11-29T00:54:07.070Z,100370.83203125
2022-11-29T00:55:07.157Z,100370.578125
2022-11-29T00:56:07.088Z,100370.796875
2022-11-29T00:57:07.657Z,100370.59375
2022-11-29T00:58:10.101Z,100372.10546875
2022-11-29T00:59:07.149Z,100373.65234375
2022-11-29T01:00:07.164Z,100372.96484375
2022-11-29T01:01:07.543Z,100370.0234375
2022-11-29T01:02:07.515Z,100367.31640625
2022-11-29T01:03:07.054Z,100370.9609375
2022-11-29T01:04:07.045Z,100371.1875
2022-11-29T01:05:07.092Z,100370.47265625
2022-11-29T01:06:07.086Z,100371.51953125
2022-11-29T01:07:07.451Z,100369.82421875
2022-11-29T01:08:07.190Z,100371.296875
2022-11-29T01:09:11.493Z,100367.546875
2022-11-29T01:10:07.266Z,100372.33984375
2022-11-29T01:11:07.100Z,100369.625
2022-11-29T01:12:07.504Z,100372.06640625
2022-11-29T01:13:07.159Z,100373.2734375
2022-11-29T01:14:07.228Z,100376.53125
2022-11-29T01:15:07.217Z,100380.26953125
2022-11-29T01:16:07.513Z,100374.5078125
2022-11-29T01:17:07.607Z,100380.65625
2022-11-29T01:18:07.155Z,100376.625
2022-11-29T01:19:07.082Z,100382.6171875
2022-11-29T01:20:10.075Z,100379.7421875
2022-11-29T01:21:07.191Z,100380.0390625
2022-11-29T01:22:07.514Z,100384.81640625
2022-11-29T01:23:07.159Z,100386.0703125
2022-11-29T01:24:07.071Z,100387.421875
2022-11-29T01:25:07.079Z,100387.6953125
2022-11-29T01:26:07.080Z,100386.28125
2022-11-29T01:27:07.515Z,100386.66796875
2022-11-29T01:28:07.158Z,100385.63671875
2022-11-29T01:29:07.064Z,100389.00390625
2022-11-29T01:30:07.072Z,100388.4140625
2022-11-29T01:31:13.273Z,100389.75390625
2022-11-29T01:32:07.461Z,100388.52734375
2022-11-29T01:33:07.156Z,100390.4140625
2022-11-29T01:34:07.085Z,100395.78515625
2022-11-29T01:35:07.091Z,100395.3125
2022-11-29T01:36:07.073Z,100395.6328125
2022-11-29T01:37:07.443Z,100392.97265625
2022-11-29T01:38:07.078Z,100394.0625
2022-11-29T01:39:07.102Z,100396.30078125
2022-11-29T01:40:09.967Z,100391.7890625
2022-11-29T01:41:07.186Z,100395.2734375
2022-11-29T01:42:13.177Z,100395.90625
2022-11-29T01:43:07.178Z,100396.078125
2022-11-29T01:44:07.072Z,100397.9296875
2022-11-29T01:45:07.070Z,100394.34765625
2022-11-29T01:46:07.609Z,100397.0390625
2022-11-29T01:47:07.448Z,100396.5390625
2022-11-29T01:48:07.102Z,100394.36328125
2022-11-29T01:49:07.163Z,100397.296875
2022-11-29T01:50:07.290Z,100394.29296875
2022-11-29T01:51:07.085Z,100398.40625
2022-11-29T01:52:07.444Z,100398.94921875
2022-11-29T01:53:10.084Z,100398.62109375
2022-11-29T01:54:07.170Z,100399.82421875
2022-11-29T01:55:07.075Z,100398.36328125
2022-11-29T01:56:07.172Z,100396.50390625
2022-11-29T01:57:07.523Z,100393.796875
2022-11-29T01:58:07.227Z,100398.109375
2022-11-29T01:59:07.087Z,100397.72265625
2022-11-29T02:00:07.097Z,100394.9453125
2022-11-29T02:01:07.549Z,100393.62890625
2022-11-29T02:02:07.497Z,100394.28515625
2022-11-29T02:03:07.190Z,100387.3671875
2022-11-29T02:04:10.152Z,100389.5078125
2022-11-29T02:05:07.296Z,100390.875
2022-11-29T02:06:07.141Z,100390.77734375
2022-11-29T02:07:07.535Z,100391.68359375
2022-11-29T02:08:07.171Z,100391.69140625
2022-11-29T02:09:07.081Z,100391.30078125
2022-11-29T02:10:07.093Z,100392.4453125
2022-11-29T02:11:08.763Z,100390.390625
2022-11-29T02:12:07.442Z,100389.2890625
2022-11-29T02:13:07.314Z,100389.65234375
2022-11-29T02:14:07.060Z,100391.3515625
2022-11-29T02:15:10.182Z,100391.62109375
2022-11-29T02:16:07.456Z,100393.8125
2022-11-29T02:17:07.547Z,100389.53515625
2022-11-29T02:18:07.188Z,100392.2109375
2022-11-29T02:19:07.072Z,100392.1015625
2022-11-29T02:20:07.078Z,100390.7578125
2022-11-29T02:21:07.217Z,100392.00390625
2022-11-29T02:22:07.435Z,100391.74609375
2022-11-29T02:23:07.199Z,100393.48046875
2022-11-29T02:24:07.079Z,100391.421875
2022-11-29T02:25:07.088Z,100391.4375
2022-11-29T02:26:10.126Z,100392.14453125
2022-11-29T02:27:07.432Z,100392.09765625
2022-11-29T02:28:07.230Z,100393.01953125
2022-11-29T02:29:07.213Z,100392.41015625
2022-11-29T02:30:07.081Z,100393.453125
2022-11-29T02:31:07.589Z,100392.84765625
2022-11-29T02:32:07.435Z,100392.859375
2022-11-29T02:33:07.069Z,100392.25
2022-11-29T02:34:07.210Z,100394.91796875
2022-11-29T02:35:07.164Z,100393.9296875
2022-11-29T02:36:07.080Z,100394.8046875
2022-11-29T02:37:13.197Z,100396.69921875
2022-11-29T02:38:07.182Z,100397.78125
2022-11-29T02:39:07.070Z,100396.3125
2022-11-29T02:40:07.082Z,100396.53515625
2022-11-29T02:41:07.086Z,100402.2890625
2022-11-29T02:42:07.518Z,100402.39453125
2022-11-29T02:43:07.084Z,100400.8203125
2022-11-29T02:44:07.087Z,100402.17578125
2022-11-29T02:45:07.091Z,100399.73828125
2022-11-29T02:46:07.570Z,100400.64453125
2022-11-29T02:47:07.440Z,100399.875
2022-11-29T02:48:10.093Z,100400.453125
2022-11-29T02:49:07.186Z,100400.453125
2022-11-29T02:50:07.133Z,100401.8125
2022-11-29T02:51:07.087Z,100400.76953125
2022-11-29T02:52:07.511Z,100404.828125
2022-11-29T02:53:07.148Z,100402.4609375
2022-11-29T02:54:07.069Z,100401.69140625
2022-11-29T02:55:07.078Z,100404.25
2022-11-29T02:56:07.069Z,100403.41796875
2022-11-29T02:57:07.507Z,100404.34765625
2022-11-29T02:58:07.173Z,100407.44921875
2022-11-29T02:59:10.104Z,100405.765625
2022-11-29T03:00:07.170Z,100403.10546875
2022-11-29T03:01:07.557Z,100404.90625
2022-11-29T03:02:07.504Z,100405.2421875
2022-11-29T03:03:07.147Z,100403.94140625
2022-11-29T03:04:07.075Z,100407.5234375
2022-11-29T03:05:07.079Z,100409.15234375
2022-11-29T03:06:07.089Z,100405.9609375
2022-11-29T03:07:07.451Z,100407.30859375
2022-11-29T03:08:07.157Z,100409.8125
2022-11-29T03:09:07.066Z,100407.41796875
2022-11-29T03:10:10.110Z,100409.796875
2022-11-29T03:11:07.213Z,100410.38671875
2022-11-29T03:12:07.516Z,100408.7578125
2022-11-29T03:13:07.185Z,100412.578125
2022-11-29T03:14:07.073Z,100413.55859375
2022-11-29T03:15:07.084Z,100410.56640625
2022-11-29T03:16:07.519Z,100412.8046875
2022-11-29T03:17:07.529Z,100414.48046875
2022-11-29T03:18:07.163Z,100416.33984375
2022-11-29T03:19:07.087Z,100413.77734375
2022-11-29T03:20:07.063Z,100414.60546875
2022-11-29T03:21:10.069Z,100413.640625
2022-11-29T03:22:07.459Z,100412.91796875
2022-11-29T03:23:07.143Z,100414.98828125
2022-11-29T03:24:07.092Z,100412.828125
2022-11-29T03:25:07.063Z,100418.53515625
2022-11-29T03:26:07.183Z,100413.6015625
2022-11-29T03:27:07.436Z,100417.796875
2022-11-29T03:28:07.240Z,100420.78515625
2022-11-29T03:29:07.275Z,100420.17578125
2022-11-29T03:30:07.171Z,100419.23828125
2022-11-29T03:31:07.602Z,100419.671875
2022-11-29T03:32:10.570Z,100421.91796875
2022-11-29T03:33:07.173Z,100419.91796875
2022-11-29T03:34:07.202Z,100423.9921875
2022-11-29T03:35:07.096Z,100423.75390625
2022-11-29T03:36:07.066Z,100422.07421875
2022-11-29T03:37:07.530Z,100422.0703125
2022-11-29T03:38:10.089Z,100425.6015625
2022-11-29T03:39:07.130Z,100429.2890625
2022-11-29T03:40:07.072Z,100425.0859375
2022-11-29T03:41:07.071Z,100430.96484375
2022-11-29T03:42:07.444Z,100435.4140625
2022-11-29T03:43:07.149Z,100434.53515625
2022-11-29T03:44:07.086Z,100433.19140625
2022-11-29T03:45:07.063Z,100434.453125
2022-11-29T03:46:07.160Z,100433.97265625
2022-11-29T03:47:07.510Z,100436.43359375
2022-11-29T03:48:07.185Z,100435.89453125
2022-11-29T03:49:10.050Z,100440.46484375
2022-11-29T03:50:07.294Z,100438.5234375
2022-11-29T03:51:07.088Z,100442.8203125
2022-11-29T03:52:07.588Z,100442.09765625
2022-11-29T03:53:07.172Z,100442.8125
2022-11-29T03:54:07.071Z,100441.41796875
2022-11-29T03:55:07.155Z,100443.87109375
2022-11-29T03:56:07.077Z,100443.03125
2022-11-29T03:57:07.511Z,100445.21484375
2022-11-29T03:58:07.145Z,100445.43359375
2022-11-29T03:59:07.088Z,100442.28515625
2022-11-29T04:00:07.091Z,100443.42578125
2022-11-29T04:01:07.095Z,100442.94140625
2022-11-29T04:02:07.511Z,100441.5078125
2022-11-29T04:03:07.195Z,100443.6875
2022-11-29T04:04:07.070Z,100443.8515625
2022-11-29T04:05:10.098Z,100444.57421875
2022-11-29T04:06:07.162Z,100442.671875
2022-11-29T04:07:07.510Z,100443.65234375
2022-11-29T04:08:07.266Z,100440.97265625
2022-11-29T04:09:07.076Z,100438.37109375
2022-11-29T04:10:07.244Z,100442.609375
2022-11-29T04:11:07.134Z,100443.37109375
2022-11-29T04:12:07.120Z,100440.66015625
2022-11-29T04:13:07.089Z,100443.4375
2022-11-29T04:14:07.275Z,100442.55078125
2022-11-29T04:15:08.782Z,100442.4921875
2022-11-29T04:16:10.119Z,100437.01171875
2022-11-29T04:17:07.574Z,100443.0546875
2022-11-29T04:18:07.488Z,100444.12890625
2022-11-29T04:19:07.150Z,100443.640625
2022-11-29T04:20:07.085Z,100444.41015625
2022-11-29T04:21:07.068Z,100441.69140625
2022-11-29T04:22:07.067Z,100444.3671875
2022-11-29T04:23:07.537Z,100446.375
2022-11-29T04:24:07.142Z,100440.3828125
2022-11-29T04:25:07.089Z,100445.4921875
2022-11-29T04:26:07.071Z,100445.50390625
2022-11-29T04:27:10.096Z,100448.875
2022-11-29T04:28:07.447Z,100446.40625
2022-11-29T04:29:07.442Z,100449.77734375
2022-11-29T04:30:07.218Z,100448.328125
2022-11-29T04:31:07.099Z,100447.11328125
2022-11-29T04:32:07.561Z,100451.8984375
2022-11-29T04:33:07.434Z,100454.6171875
2022-11-29T04:34:07.083Z,100455.10546875
2022-11-29T04:35:07.077Z,100456.89453125
2022-11-29T04:36:07.061Z,100454.5546875
2022-11-29T04:37:07.074Z,100457.48046875
2022-11-29T04:38:13.206Z,100459.28515625
2022-11-29T04:39:07.155Z,100455.91015625
2022-11-29T04:40:07.088Z,100465
2022-11-29T04:41:07.084Z,100461.796875
2022-11-29T04:42:07.082Z,100462.9921875
2022-11-29T04:43:07.512Z,100458.69921875
2022-11-29T04:44:07.065Z,100465.81640625
2022-11-29T04:45:07.068Z,100463.5390625
2022-11-29T04:46:07.157Z,100465.3828125
2022-11-29T04:47:07.508Z,100466.31640625
2022-11-29T04:48:07.443Z,100463.765625
2022-11-29T04:49:10.131Z,100465.484375
2022-11-29T04:50:07.152Z,100466.35546875
2022-11-29T04:51:07.151Z,100467.9765625
2022-11-29T04:52:07.062Z,100466.63671875
2022-11-29T04:53:07.502Z,100467.29296875
2022-11-29T04:54:07.147Z,100470.28515625
2022-11-29T04:55:07.070Z,100469.85546875
2022-11-29T04:56:07.087Z,100469.58203125
2022-11-29T04:57:07.171Z,100471.25390625
2022-11-29T04:58:07.515Z,100472.94921875
2022-11-29T04:59:07.165Z,100476.984375
2022-11-29T05:00:10.544Z,100476.5390625
2022-11-29T05:01:07.187Z,100474.07421875
2022-11-29T05:02:07.545Z,100479.78515625
2022-11-29T05:03:07.494Z,100478.6953125
2022-11-29T05:04:07.169Z,100481.91015625
2022-11-29T05:05:07.075Z,100483.09765625
2022-11-29T05:06:07.106Z,100481.8515625
2022-11-29T05:07:07.068Z,100483.98046875
2022-11-29T05:08:07.429Z,100485.265625
2022-11-29T05:09:07.191Z,100489.84765625
2022-11-29T05:10:07.048Z,100487.7265625
2022-11-29T05:11:10.091Z,100487.50390625
2022-11-29T05:12:07.278Z,100488.2578125
2022-11-29T05:13:07.527Z,100488.3828125
2022-11-29T05:14:07.160Z,100492.30078125
2022-11-29T05:15:07.069Z,100494.46484375
2022-11-29T05:16:07.153Z,100492.34375
2022-11-29T05:17:07.455Z,100495.7109375
2022-11-29T05:18:07.532Z,100499.5625
2022-11-29T05:19:07.276Z,100497.4453125
2022-11-29T05:20:07.046Z,100498.48828125
2022-11-29T05:21:07.061Z,100497.51171875
2022-11-29T05:22:10.113Z,100497.625
2022-11-29T05:23:07.175Z,100500.91796875
2022-11-29T05:24:07.183Z,100504.078125
2022-11-29T05:25:07.083Z,100502.76171875
2022-11-29T05:26:07.069Z,100507.05078125
2022-11-29T05:27:07.125Z,100508.3125
2022-11-29T05:28:10.236Z,100506.7421875
2022-11-29T05:29:07.181Z,100507.6640625
2022-11-29T05:30:07.144Z,100506.04296875
2022-11-29T05:31:07.122Z,100502.77734375
2022-11-29T05:32:07.248Z,100506.91015625
2022-11-29T05:33:13.229Z,100505.7734375
2022-11-29T05:34:07.317Z,100505.65234375
2022-11-29T05:35:07.155Z,100506.25
2022-11-29T05:36:07.089Z,100506.640625
2022-11-29T05:37:07.167Z,100507.4609375
2022-11-29T05:38:07.079Z,100504.65625
2022-11-29T05:39:13.120Z,100506.2734375
2022-11-29T05:40:07.236Z,100504.44140625
2022-11-29T05:41:07.091Z,100506.60546875
2022-11-29T05:42:07.096Z,100505.47265625
2022-11-29T05:43:07.296Z,100506.34765625
2022-11-29T05:44:07.435Z,100510.16015625
2022-11-29T05:45:07.106Z,100510.640625
2022-11-29T05:46:07.116Z,100510.91796875
2022-11-29T05:47:07.067Z,100512.2265625
2022-11-29T05:48:07.121Z,100514.40234375
2022-11-29T05:49:07.178Z,100513.80859375
2022-11-29T05:50:10.128Z,100515.4453125
2022-11-29T05:51:07.135Z,100514.08984375
2022-11-29T05:52:07.087Z,100513.80859375
2022-11-29T05:53:07.084Z,100516.36328125
2022-11-29T05:54:07.543Z,100515.72265625
2022-11-29T05:55:07.177Z,100520.12109375
2022-11-29T05:56:07.079Z,100518.44140625
2022-11-29T05:57:07.188Z,100514.90234375
2022-11-29T05:58:07.104Z,100514.30078125
2022-11-29T05:59:07.509Z,100515.703125
2022-11-29T06:00:07.135Z,100514.7109375
2022-11-29T06:01:10.197Z,100514.71484375
2022-11-29T06:02:07.249Z,100515.75
2022-11-29T06:03:07.589Z,100517.55859375
2022-11-29T06:04:13.251Z,100518.6953125
2022-11-29T06:05:07.168Z,100520.87109375
2022-11-29T06:06:07.071Z,100520.8671875
2022-11-29T06:07:07.083Z,100520.8046875
2022-11-29T06:08:07.111Z,100521.5546875
2022-11-29T06:09:07.440Z,100527.7734375
2022-11-29T06:10:07.151Z,100526.19140625
2022-11-29T06:11:07.063Z,100529.734375
2022-11-29T06:12:10.098Z,100528.21875
2022-11-29T06:13:07.160Z,100529.62890625
2022-11-29T06:14:07.566Z,100527.72265625
2022-11-29T06:15:07.186Z,100527.671875
2022-11-29T06:16:07.175Z,100530.40234375
2022-11-29T06:17:07.090Z,100529.91015625
2022-11-29T06:18:07.436Z,100532.24609375
2022-11-29T06:19:07.502Z,100534.3671875
2022-11-29T06:20:07.220Z,100537.078125
2022-11-29T06:21:07.067Z,100535.8984375
2022-11-29T06:22:07.085Z,100537.625
2022-11-29T06:23:10.053Z,100539.109375
2022-11-29T06:24:07.429Z,100537.47265625
2022-11-29T06:25:07.071Z,100536.98828125
2022-11-29T06:26:07.082Z,100540.96875
2022-11-29T06:27:07.068Z,100541.5078125
2022-11-29T06:28:07.084Z,100545.09765625
2022-11-29T06:29:07.471Z,100545.26171875
2022-11-29T06:30:07.089Z,100544.609375
2022-11-29T06:31:07.099Z,100544.7890625
2022-11-29T06:32:07.072Z,100545.93359375
2022-11-29T06:33:07.450Z,100545.828125
2022-11-29T06:34:10.062Z,100544.51953125
2022-11-29T06:35:07.302Z,100545.79296875
2022-11-29T06:36:07.141Z,100546.6015625
2022-11-29T06:37:07.081Z,100541.76171875
2022-11-29T06:38:07.165Z,100547.04296875
2022-11-29T06:39:07.505Z,100542.51953125
2022-11-29T06:40:07.079Z,100544.53515625
2022-11-29T06:41:07.072Z,100539.38671875
2022-11-29T06:42:07.068Z,100538.0703125
2022-11-29T06:43:07.097Z,100541.9296875
2022-11-29T06:44:07.508Z,100540.421875
2022-11-29T06:45:10.086Z,100541.65625
2022-11-29T06:46:07.161Z,100544.640625
2022-11-29T06:47:07.064Z,100540.66796875
2022-11-29T06:48:07.565Z,100545.08984375
2022-11-29T06:49:07.440Z,100544.98046875
2022-11-29T06:50:07.283Z,100543.78125
2022-11-29T06:51:07.080Z,100543.8359375
2022-11-29T06:52:07.070Z,100544.703125
2022-11-29T06:53:07.084Z,100546.32421875
2022-11-29T06:54:07.718Z,100547.46484375
2022-11-29T06:55:07.158Z,100548.3828125
2022-11-29T06:56:10.090Z,100546.76953125
2022-11-29T06:57:07.169Z,100545.4375
2022-11-29T06:58:07.072Z,100547.88671875
2022-11-29T06:59:07.551Z,100551.37109375
2022-11-29T07:00:07.168Z,100551.16796875
2022-11-29T07:01:07.241Z,100556.015625
2022-11-29T07:02:07.150Z,100553.24609375
2022-11-29T07:03:07.509Z,100552.33203125
2022-11-29T07:04:07.437Z,100555.99609375
2022-11-29T07:05:07.197Z,100556.53125
2022-11-29T07:06:07.081Z,100557.02734375
2022-11-29T07:07:10.089Z,100556.2578125
2022-11-29T07:08:07.190Z,100557.6171875
2022-11-29T07:09:07.512Z,100562.57421875
2022-11-29T07:10:11.997Z,100563.8671875
2022-11-29T07:11:07.077Z,100563.80078125
2022-11-29T07:12:07.067Z,100563.27734375
2022-11-29T07:13:07.076Z,100562.7734375
2022-11-29T07:14:07.442Z,100566.5
2022-11-29T07:15:07.074Z,100566.7734375
2022-11-29T07:16:07.290Z,100568.515625
2022-11-29T07:17:07.164Z,100569.484375
2022-11-29T07:18:10.495Z,100569.2578125
2022-11-29T07:19:07.496Z,100570.29296875
2022-11-29T07:20:07.136Z,100568.8828125
2022-11-29T07:21:07.086Z,100574.46484375
2022-11-29T07:22:07.070Z,100574.39453125
2022-11-29T07:23:07.084Z,100579.1953125
2022-11-29T07:24:07.444Z,100582.08203125
2022-11-29T07:25:07.085Z,100581.82421875
2022-11-29T07:26:07.079Z,100585.73828125
2022-11-29T07:27:07.083Z,100584.10546875
2022-11-29T07:28:07.062Z,100584.2265625
2022-11-29T07:29:13.137Z,100586.26171875
2022-11-29T07:30:07.182Z,100589.14453125
2022-11-29T07:31:07.166Z,100588.171875
2022-11-29T07:32:07.071Z,100590.7265625
2022-11-29T07:33:07.514Z,100589.25
2022-11-29T07:34:07.442Z,100587.15625
2022-11-29T07:35:07.102Z,100590.859375
2022-11-29T07:36:07.216Z,100587.921875
2022-11-29T07:37:07.103Z,100589.83984375
2022-11-29T07:38:07.082Z,100588.47265625
2022-11-29T07:39:07.516Z,100589.07421875
2022-11-29T07:40:10.052Z,100589.9921875
2022-11-29T07:41:07.188Z,100590.265625
2022-11-29T07:42:07.079Z,100589.0859375
2022-11-29T07:43:07.183Z,100589.140625
2022-11-29T07:44:07.157Z,100593.01171875
2022-11-29T07:45:07.507Z,100592.88671875
2022-11-29T07:46:07.088Z,100593.55859375
2022-11-29T07:47:07.132Z,100592.03515625
2022-11-29T07:48:07.510Z,100595.9609375
2022-11-29T07:49:07.449Z,100592.9765625
2022-11-29T07:50:07.164Z,100592.49609375
2022-11-29T07:51:10.097Z,100596.734375
2022-11-29T07:52:07.174Z,100595.328125
2022-11-29T07:53:07.089Z,100596.78125
2022-11-29T07:54:07.508Z,100598.20703125
2022-11-29T07:55:07.191Z,100596.53515625
2022-11-29T07:56:07.144Z,100597.44921875
2022-11-29T07:57:07.088Z,100594.671875
2022-11-29T07:58:07.083Z,100597.88671875
2022-11-29T07:59:07.565Z,100597.6640625
2022-11-29T08:00:07.179Z,100597.671875
2022-11-29T08:01:07.163Z,100597.11328125
2022-11-29T08:02:11.844Z,100602.01953125
2022-11-29T08:03:07.443Z,100604.2578125
2022-11-29T08:04:07.549Z,100601.5390625
2022-11-29T08:05:07.267Z,100601.1640625
2022-11-29T08:06:07.068Z,100600.1796875
2022-11-29T08:07:07.073Z,100604.85546875
2022-11-29T08:08:07.083Z,100604.15234375
2022-11-29T08:09:07.216Z,100609.10546875
2022-11-29T08:10:07.533Z,100604.80859375
2022-11-29T08:11:07.075Z,100608.9921875
2022-11-29T08:12:07.064Z,100610.359375
2022-11-29T08:13:10.070Z,100609
2022-11-29T08:14:07.432Z,100611.98046875
2022-11-29T08:15:07.077Z,100612.30859375
2022-11-29T08:16:07.110Z,100610.4140625
2022-11-29T08:17:07.060Z,100613.62890625
2022-11-29T08:18:07.502Z,100611.5546875
2022-11-29T08:19:07.434Z,100615.25
2022-11-29T08:20:07.089Z,100616.67578125
2022-11-29T08:21:07.167Z,100620.76171875
2022-11-29T08:22:07.090Z,100621.90625
2022-11-29T08:23:08.678Z,100626.0390625
2022-11-29T08:24:10.408Z,100624.0859375
2022-11-29T08:25:07.166Z,100628.15234375
2022-11-29T08:26:07.158Z,100626.53125
2022-11-29T08:27:07.075Z,100625.55078125
2022-11-29T08:28:07.070Z,100626.5390625
2022-11-29T08:29:07.509Z,100627.39453125
2022-11-29T08:30:07.074Z,100629.47265625
2022-11-29T08:31:07.082Z,100630.5625
2022-11-29T08:32:07.188Z,100631.37890625
2022-11-29T08:33:07.507Z,100629.3046875
2022-11-29T08:34:07.439Z,100632.6328125
2022-11-29T08:35:10.047Z,100631.4921875
2022-11-29T08:36:07.157Z,100630.8359375
2022-11-29T08:37:07.255Z,100634.98046875
2022-11-29T08:38:07.171Z,100635.66796875
2022-11-29T08:39:09.204Z,100638.6171875
2022-11-29T08:40:07.162Z,100638.06640625
2022-11-29T08:41:07.085Z,100640.62890625
2022-11-29T08:42:07.158Z,100636.765625
2022-11-29T08:43:07.082Z,100639.33203125
2022-11-29T08:44:07.517Z,100644.328125
2022-11-29T08:45:07.156Z,100639.49609375
2022-11-29T08:46:07.115Z,100642.546875
2022-11-29T08:47:07.116Z,100641.2734375
2022-11-29T08:48:07.511Z,100642.3125
2022-11-29T08:49:07.448Z,100644.86328125
2022-11-29T08:50:07.157Z,100640.5625
2022-11-29T08:51:10.122Z,100642.95703125
2022-11-29T08:52:07.169Z,100645.36328125
2022-11-29T08:53:07.092Z,100643.55078125
2022-11-29T08:54:07.089Z,100647.74609375
2022-11-29T08:55:07.443Z,100648.6171875
2022-11-29T08:56:31.853Z,100649.94140625
2022-11-29T08:58:45.341Z,100658.52734375
2022-11-29T08:59:45.718Z,100659.3984375
2022-11-29T09:00:45.546Z,100659.234375
2022-11-29T09:01:45.331Z,100661.515625
2022-11-29T09:02:45.733Z,100659.66796875
2022-11-29T09:03:48.356Z,100659.8984375
2022-11-29T09:04:45.835Z,100659.41796875
2022-11-29T09:05:45.411Z,100660.71484375
2022-11-29T09:06:45.282Z,100661.6484375
2022-11-29T09:07:45.379Z,100662.515625
2022-11-29T09:08:45.288Z,100658.33203125
2022-11-29T09:09:45.776Z,100660.515625
2022-11-29T09:10:45.346Z,100660.94140625
2022-11-29T09:11:49.086Z,100661.22265625
2022-11-29T09:12:45.454Z,100661.27734375
2022-11-29T09:13:45.370Z,100664.7109375
2022-11-29T09:14:46.102Z,100663.61328125
2022-11-29T09:15:45.352Z,100665.89453125
2022-11-29T09:16:45.338Z,100670.75
2022-11-29T09:17:45.656Z,100670.15234375
2022-11-29T09:18:51.264Z,100669.6640625
2022-11-29T09:19:51.456Z,100668.078125
2022-11-29T09:20:45.347Z,100671.953125
2022-11-29T09:21:45.421Z,100673.59375
2022-11-29T09:22:45.287Z,100671.84375
2022-11-29T09:23:45.277Z,100676.484375
2022-11-29T09:24:46.110Z,100678.6015625
2022-11-29T09:25:45.262Z,100675.37890625
2022-11-29T09:26:45.297Z,100676.96484375
2022-11-29T09:27:45.372Z,100677.515625
2022-11-29T09:28:45.312Z,100676.58203125
2022-11-29T09:29:45.305Z,100677.23828125
2022-11-29T09:30:48.428Z,100680.515625
2022-11-29T09:31:45.457Z,100675.99609375
2022-11-29T09:32:45.733Z,100680.0625
2022-11-29T09:33:45.399Z,100681.375
2022-11-29T09:34:46.011Z,100682.91015625
2022-11-29T09:35:45.321Z,100683.55078125
2022-11-29T09:36:45.290Z,100683.33984375
2022-11-29T09:37:45.276Z,100684.32421875
2022-11-29T09:38:45.356Z,100686.06640625
2022-11-29T09:39:45.766Z,100687.16015625
2022-11-29T09:40:45.377Z,100689.6640625
2022-11-29T09:41:48.884Z,100692.33203125
2022-11-29T09:42:45.519Z,100691.5
2022-11-29T09:43:45.372Z,100691.94921875
2022-11-29T09:44:46.027Z,100695.703125
2022-11-29T09:45:45.328Z,100696.078125
2022-11-29T09:46:45.402Z,100695.921875
2022-11-29T09:47:45.649Z,100696.78515625
2022-11-29T09:48:45.270Z,100695.87109375
2022-11-29T09:49:45.763Z,100693.640625
2022-11-29T09:50:45.348Z,100698.05078125
2022-11-29T09:51:45.275Z,100701.58203125
2022-11-29T09:52:48.287Z,100701.10546875
2022-11-29T09:53:45.364Z,100703.87890625
2022-11-29T09:54:45.995Z,100701.21484375
2022-11-29T09:55:45.418Z,100704.15625
2022-11-29T09:56:45.377Z,100708.1875
2022-11-29T09:57:45.428Z,100705.078125
2022-11-29T09:58:45.331Z,100706.50390625
2022-11-29T09:59:45.731Z,100705.19140625